sensor_id;sensor_type;location;lat;lon;timestamp;temperature;humidity
43227;DHT22;28839;52.404;9.808;2022-07-06T03:17:37;15.00;99.90
43227;DHT22;28839;52.404;9.808;2022-07-06T03:24:32;14.90;99.90
43227;DHT22;28839;52.404;9.808;2022-07-06T03:38:20;15.00;99.90
43227;DHT22;28839;52.404;9.808;2022-07-06T03:45:15;14.90;99.90
43227;DHT22;28839;52.404;9.808;2022-07-06T03:52:09;14.70;99.90
43227;DHT22;28839;52.404;9.808;2022-07-06T04:26:42;14.90;99.90
43227;DHT22;28839;52.404;9.808;2022-07-06T04:33:36;15.00;99.90
43227;DHT22;28839;52.404;9.808;2022-07-06T04:47:25;15.30;99.90
43227;DHT22;28839;52.404;9.808;2022-07-06T05:08:09;15.60;99.90
43227;DHT22;28839;52.404;9.808;2022-07-06T06:03:42;16.10;99.90
43227;DHT22;28839;52.404;9.808;2022-07-06T06:17:32;16.10;99.90
43227;DHT22;28839;52.404;9.808;2022-07-06T06:31:22;16.30;99.90
43227;DHT22;28839;52.404;9.808;2022-07-06T06:38:16;16.60;99.90
43227;DHT22;28839;52.404;9.808;2022-07-06T08:35:46;17.70;99.90
43227;DHT22;28839;52.404;9.808;2022-07-06T09:31:07;18.50;99.90
43227;DHT22;28839;52.404;9.808;2022-07-06T09:38:03;19.00;99.90
43227;DHT22;28839;52.404;9.808;2022-07-06T09:44:57;20.00;99.90
43227;DHT22;28839;52.404;9.808;2022-07-06T09:51:53;19.30;99.90
43227;DHT22;28839;52.404;9.808;2022-07-06T09:58:50;18.40;99.90
43227;DHT22;28839;52.404;9.808;2022-07-06T10:05:45;18.40;99.90
43227;DHT22;28839;52.404;9.808;2022-07-06T10:12:40;19.80;99.90
43227;DHT22;28839;52.404;9.808;2022-07-06T10:19:37;20.10;99.90
43227;DHT22;28839;52.404;9.808;2022-07-06T10:26:33;19.60;99.90
43227;DHT22;28839;52.404;9.808;2022-07-06T10:33:28;19.90;99.90
43227;DHT22;28839;52.404;9.808;2022-07-06T10:40:31;19.30;99.90
43227;DHT22;28839;52.404;9.808;2022-07-06T10:47:43;18.90;99.90
43227;DHT22;28839;52.404;9.808;2022-07-06T10:54:39;19.30;99.90
43227;DHT22;28839;52.404;9.808;2022-07-06T11:01:34;19.30;99.90
43227;DHT22;28839;52.404;9.808;2022-07-06T11:08:48;19.50;99.90
43227;DHT22;28839;52.404;9.808;2022-07-06T11:15:49;19.80;99.90
43227;DHT22;28839;52.404;9.808;2022-07-06T11:22:44;19.80;99.90
43227;DHT22;28839;52.404;9.808;2022-07-06T11:29:38;19.50;99.90
43227;DHT22;28839;52.404;9.808;2022-07-06T11:36:32;19.20;99.90
43227;DHT22;28839;52.404;9.808;2022-07-06T11:43:27;19.20;99.90
43227;DHT22;28839;52.404;9.808;2022-07-06T11:50:21;19.10;99.90
43227;DHT22;28839;52.404;9.808;2022-07-06T11:57:16;19.20;99.90
43227;DHT22;28839;52.404;9.808;2022-07-06T12:11:06;19.50;99.90
43227;DHT22;28839;52.404;9.808;2022-07-06T12:52:38;20.90;99.90
43227;DHT22;28839;52.404;9.808;2022-07-06T12:59:35;21.20;99.90
43227;DHT22;28839;52.404;9.808;2022-07-06T13:34:09;20.20;99.90
43227;DHT22;28839;52.404;9.808;2022-07-06T13:41:03;20.30;99.90
43227;DHT22;28839;52.404;9.808;2022-07-06T13:47:59;20.90;99.80
43227;DHT22;28839;52.404;9.808;2022-07-06T13:54:53;20.60;99.90
43227;DHT22;28839;52.404;9.808;2022-07-06T14:01:47;20.60;99.80
43227;DHT22;28839;52.404;9.808;2022-07-06T14:15:37;20.70;99.90
43227;DHT22;28839;52.404;9.808;2022-07-06T14:22:30;21.60;99.80
43227;DHT22;28839;52.404;9.808;2022-07-06T14:29:26;21.40;98.90
43227;DHT22;28839;52.404;9.808;2022-07-06T14:36:20;21.60;99.10
43227;DHT22;28839;52.404;9.808;2022-07-06T14:43:17;21.40;99.00
43227;DHT22;28839;52.404;9.808;2022-07-06T14:50:12;20.90;99.90
43227;DHT22;28839;52.404;9.808;2022-07-06T15:04:01;21.20;99.90
43227;DHT22;28839;52.404;9.808;2022-07-06T15:10:56;21.50;99.40
43227;DHT22;28839;52.404;9.808;2022-07-06T15:17:50;21.60;99.90
43227;DHT22;28839;52.404;9.808;2022-07-06T15:24:44;21.80;99.20
43227;DHT22;28839;52.404;9.808;2022-07-06T15:31:39;21.40;99.90
43227;DHT22;28839;52.404;9.808;2022-07-06T15:38:33;21.20;99.90
43227;DHT22;28839;52.404;9.808;2022-07-06T15:45:27;21.50;99.90
43227;DHT22;28839;52.404;9.808;2022-07-06T15:52:23;21.20;99.00
43227;DHT22;28839;52.404;9.808;2022-07-06T15:59:16;21.30;99.90
43227;DHT22;28839;52.404;9.808;2022-07-06T16:13:06;22.10;99.90
43227;DHT22;28839;52.404;9.808;2022-07-06T16:19:59;21.80;99.90
43227;DHT22;28839;52.404;9.808;2022-07-06T16:26:53;20.80;99.90
43227;DHT22;28839;52.404;9.808;2022-07-06T16:33:49;20.10;99.90
43227;DHT22;28839;52.404;9.808;2022-07-06T16:40:43;20.20;99.90
43227;DHT22;28839;52.404;9.808;2022-07-06T16:47:37;20.10;99.90
43227;DHT22;28839;52.404;9.808;2022-07-06T16:54:32;19.90;99.90
43227;DHT22;28839;52.404;9.808;2022-07-06T17:01:26;20.20;99.90
43227;DHT22;28839;52.404;9.808;2022-07-06T17:08:20;20.40;99.90
43227;DHT22;28839;52.404;9.808;2022-07-06T17:15:16;20.70;99.90
43227;DHT22;28839;52.404;9.808;2022-07-06T17:22:09;20.70;99.90
43227;DHT22;28839;52.404;9.808;2022-07-06T17:29:04;20.20;99.90
43227;DHT22;28839;52.404;9.808;2022-07-06T17:35:59;19.90;99.90
43227;DHT22;28839;52.404;9.808;2022-07-06T17:42:53;20.00;99.90
43227;DHT22;28839;52.404;9.808;2022-07-06T17:49:47;19.90;99.90
43227;DHT22;28839;52.404;9.808;2022-07-06T17:56:42;20.00;99.90
43227;DHT22;28839;52.404;9.808;2022-07-06T18:03:36;20.00;99.90
43227;DHT22;28839;52.404;9.808;2022-07-06T18:10:30;19.80;99.90
43227;DHT22;28839;52.404;9.808;2022-07-06T18:17:26;19.80;99.90
43227;DHT22;28839;52.404;9.808;2022-07-06T18:31:14;19.50;99.90
43227;DHT22;28839;52.404;9.808;2022-07-06T18:45:04;19.10;99.90
43227;DHT22;28839;52.404;9.808;2022-07-06T18:52:01;19.40;99.90
43227;DHT22;28839;52.404;9.808;2022-07-06T18:58:57;19.20;99.90
43227;DHT22;28839;52.404;9.808;2022-07-06T19:05:50;19.20;99.90
43227;DHT22;28839;52.404;9.808;2022-07-06T19:12:44;19.10;99.90
43227;DHT22;28839;52.404;9.808;2022-07-06T19:19:40;19.00;99.90
43227;DHT22;28839;52.404;9.808;2022-07-06T19:26:33;18.90;99.90
43227;DHT22;28839;52.404;9.808;2022-07-06T19:33:27;18.90;99.90
43227;DHT22;28839;52.404;9.808;2022-07-06T19:40:22;19.00;99.90
43227;DHT22;28839;52.404;9.808;2022-07-06T19:47:16;18.90;99.90
43227;DHT22;28839;52.404;9.808;2022-07-06T19:54:10;18.90;99.90
43227;DHT22;28839;52.404;9.808;2022-07-06T20:01:06;18.90;99.90
43227;DHT22;28839;52.404;9.808;2022-07-06T20:08:00;18.90;99.90
43227;DHT22;28839;52.404;9.808;2022-07-06T20:14:53;18.70;99.90
43227;DHT22;28839;52.404;9.808;2022-07-06T20:21:49;18.60;99.90
43227;DHT22;28839;52.404;9.808;2022-07-06T20:28:42;18.70;99.90
43227;DHT22;28839;52.404;9.808;2022-07-06T20:35:36;18.60;99.90
43227;DHT22;28839;52.404;9.808;2022-07-06T20:42:32;18.50;99.90
43227;DHT22;28839;52.404;9.808;2022-07-06T20:49:25;18.30;99.90
43227;DHT22;28839;52.404;9.808;2022-07-06T20:56:19;17.90;99.90
43227;DHT22;28839;52.404;9.808;2022-07-06T21:03:14;17.60;99.90
43227;DHT22;28839;52.404;9.808;2022-07-06T21:10:09;17.20;99.90
43227;DHT22;28839;52.404;9.808;2022-07-06T21:17:04;17.10;99.90
43227;DHT22;28839;52.404;9.808;2022-07-06T21:24:00;17.00;99.90
43227;DHT22;28839;52.404;9.808;2022-07-06T21:30:54;17.00;99.90
43227;DHT22;28839;52.404;9.808;2022-07-06T21:37:48;16.90;99.90
43227;DHT22;28839;52.404;9.808;2022-07-06T21:44:43;16.70;99.90
43227;DHT22;28839;52.404;9.808;2022-07-06T21:51:38;16.70;99.90
43227;DHT22;28839;52.404;9.808;2022-07-06T21:58:31;16.50;99.90
43227;DHT22;28839;52.404;9.808;2022-07-06T22:05:27;16.40;99.90
43227;DHT22;28839;52.404;9.808;2022-07-06T22:12:21;16.10;99.90
43227;DHT22;28839;52.404;9.808;2022-07-06T22:19:15;16.10;99.90
43227;DHT22;28839;52.404;9.808;2022-07-06T22:26:12;15.80;99.90
43227;DHT22;28839;52.404;9.808;2022-07-06T22:33:06;15.70;99.90
43227;DHT22;28839;52.404;9.808;2022-07-06T22:40:00;15.60;99.90
43227;DHT22;28839;52.404;9.808;2022-07-06T22:47:15;15.50;99.90
43227;DHT22;28839;52.404;9.808;2022-07-06T22:54:09;15.40;99.90
43227;DHT22;28839;52.404;9.808;2022-07-06T23:01:04;15.40;99.90
43227;DHT22;28839;52.404;9.808;2022-07-06T23:07:59;15.40;99.90
43227;DHT22;28839;52.404;9.808;2022-07-06T23:14:53;15.30;99.90
43227;DHT22;28839;52.404;9.808;2022-07-06T23:21:47;15.40;99.90
43227;DHT22;28839;52.404;9.808;2022-07-06T23:28:42;15.50;99.90
43227;DHT22;28839;52.404;9.808;2022-07-06T23:35:36;15.40;99.90
43227;DHT22;28839;52.404;9.808;2022-07-06T23:42:31;15.40;99.90
43227;DHT22;28839;52.404;9.808;2022-07-06T23:49:26;15.10;99.90
43227;DHT22;28839;52.404;9.808;2022-07-06T23:56:20;15.00;99.90
